Time;durP1;ratioP1;P1;durP2;ratioP2;P2;SDS_P1;SDS_P2;PMS_P1;PMS_P2;Temp;Humidity;BMP_temperature;BMP_pressure;BME280_temperature;BME280_humidity;BME280_pressure;Samples;Min_cycle;Max_cycle;Signal;HPM_P1;HPM_P2
2023/09/03 00:00:37;;;;;;;16.80;11.50;;;;;;;-128.00;-1.00;-1.00;105496;1251;1005056;-80
2023/09/03 00:03:23;;;;;;;17.10;11.50;;;;;;;-128.00;-1.00;-1.00;105707;1250;1061912;-80
2023/09/03 00:05:51;;;;;;;21.90;12.20;;;;;;;-128.00;-1.00;-1.00;105650;1250;1004359;-80
2023/09/03 00:08:18;;;;;;;18.60;10.80;;;;;;;-128.00;-1.00;-1.00;105798;1251;1004124;-80
2023/09/03 00:10:48;;;;;;;18.00;11.50;;;;;;;-128.00;-1.00;-1.00;105727;1250;1004305;-80
2023/09/03 00:13:14;;;;;;;16.50;10.50;;;;;;;-128.00;-1.00;-1.00;105650;1250;1046932;-80
2023/09/03 00:15:40;;;;;;;18.30;11.20;;;;;;;-128.00;-1.00;-1.00;105656;1251;1003442;-80
2023/09/03 00:18:08;;;;;;;17.40;10.30;;;;;;;-128.00;-1.00;-1.00;105680;1250;1004189;-80
2023/09/03 00:20:35;;;;;;;17.10;10.10;;;;;;;-128.00;-1.00;-1.00;105360;1253;1004523;-80
2023/09/03 00:23:01;;;;;;;20.20;13.50;;;;;;;-128.00;-1.00;-1.00;105440;1251;1004146;-80
2023/09/03 00:25:28;;;;;;;15.60;11.30;;;;;;;-128.00;-1.00;-1.00;105611;1251;1004489;-80
2023/09/03 00:27:54;;;;;;;21.80;12.50;;;;;;;-128.00;-1.00;-1.00;105411;1251;1003912;-80
2023/09/03 00:30:21;;;;;;;17.50;11.80;;;;;;;-128.00;-1.00;-1.00;105618;1250;1003982;-80
2023/09/03 00:32:47;;;;;;;15.60;10.50;;;;;;;-128.00;-1.00;-1.00;105591;1251;1003938;-80
2023/09/03 00:35:14;;;;;;;16.90;10.90;;;;;;;-128.00;-1.00;-1.00;105636;1251;1004358;-80
2023/09/03 00:37:40;;;;;;;17.50;11.70;;;;;;;-128.00;-1.00;-1.00;105419;1253;1004089;-80
2023/09/03 00:40:07;;;;;;;17.50;11.70;;;;;;;-128.00;-1.00;-1.00;105677;1250;1005544;-80
2023/09/03 00:42:34;;;;;;;19.70;11.20;;;;;;;-128.00;-1.00;-1.00;105713;1250;1003833;-80
2023/09/03 00:45:01;;;;;;;22.50;11.40;;;;;;;-128.00;-1.00;-1.00;105608;1251;1003535;-80
2023/09/03 00:47:28;;;;;;;18.70;11.20;;;;;;;-128.00;-1.00;-1.00;105520;1251;1004537;-80
2023/09/03 00:49:54;;;;;;;15.20;10.60;;;;;;;-128.00;-1.00;-1.00;105667;1251;1004866;-80
2023/09/03 00:52:21;;;;;;;17.60;11.40;;;;;;;-128.00;-1.00;-1.00;105556;1251;1003785;-80
2023/09/03 00:54:47;;;;;;;15.30;10.90;;;;;;;-128.00;-1.00;-1.00;105553;1251;1004740;-80
2023/09/03 00:57:13;;;;;;;16.20;10.70;;;;;;;-128.00;-1.00;-1.00;105632;1251;1004379;-80
2023/09/03 00:59:40;;;;;;;16.70;11.80;;;;;;;-128.00;-1.00;-1.00;105600;1250;1004491;-80
2023/09/03 01:02:08;;;;;;;18.40;11.10;;;;;;;-128.00;-1.00;-1.00;105635;1250;1004986;-80
2023/09/03 01:04:35;;;;;;;15.30;10.80;;;;;;;-128.00;-1.00;-1.00;105519;1251;1004070;-80
2023/09/03 01:07:02;;;;;;;18.90;10.00;;;;;;;-128.00;-1.00;-1.00;105628;1250;1005255;-80
2023/09/03 01:09:28;;;;;;;16.30;10.00;;;;;;;-128.00;-1.00;-1.00;105451;1251;1004371;-80
2023/09/03 01:12:05;;;;;;;15.00;9.20;;;;;;;-128.00;-1.00;-1.00;105438;1250;1004144;-80
2023/09/03 01:14:44;;;;;;;16.90;10.70;;;;;;;-128.00;-1.00;-1.00;105606;1250;1046778;-80
2023/09/03 01:17:30;;;;;;;14.70;10.60;;;;;;;-128.00;-1.00;-1.00;105691;1250;1061378;-80
2023/09/03 01:19:59;;;;;;;15.60;10.60;;;;;;;-128.00;-1.00;-1.00;105679;1249;1058003;-80
2023/09/03 01:23:02;;;;;;;20.80;11.60;;;;;;;-128.00;-1.00;-1.00;105681;1251;1058737;-79
2023/09/03 01:25:50;;;;;;;25.40;11.30;;;;;;;-128.00;-1.00;-1.00;105706;1251;1046055;-79
2023/09/03 01:28:27;;;;;;;19.40;10.60;;;;;;;-128.00;-1.00;-1.00;105734;1251;1046188;-80
2023/09/03 01:30:58;;;;;;;16.70;10.90;;;;;;;-128.00;-1.00;-1.00;105594;1251;1062035;-80
2023/09/03 01:33:28;;;;;;;19.10;11.90;;;;;;;-128.00;-1.00;-1.00;105676;1254;1058173;-80
2023/09/03 01:35:55;;;;;;;18.30;11.60;;;;;;;-128.00;-1.00;-1.00;105545;1251;1059858;-80
2023/09/03 01:38:21;;;;;;;18.10;11.30;;;;;;;-128.00;-1.00;-1.00;105707;1251;1004566;-80
2023/09/03 01:40:48;;;;;;;19.30;12.10;;;;;;;-128.00;-1.00;-1.00;105697;1251;1003465;-80
2023/09/03 01:43:15;;;;;;;25.30;11.90;;;;;;;-128.00;-1.00;-1.00;105513;1250;1004878;-80
2023/09/03 01:45:46;;;;;;;19.30;12.60;;;;;;;-128.00;-1.00;-1.00;105600;1250;1004386;-79
2023/09/03 01:48:36;;;;;;;16.90;12.00;;;;;;;-128.00;-1.00;-1.00;105709;1251;1059398;-80
2023/09/03 01:51:21;;;;;;;17.90;11.30;;;;;;;-128.00;-1.00;-1.00;105545;1251;1046283;-80
2023/09/03 01:53:54;;;;;;;19.60;10.60;;;;;;;-128.00;-1.00;-1.00;105724;1250;1047760;-80
2023/09/03 01:56:21;;;;;;;17.70;11.20;;;;;;;-128.00;-1.00;-1.00;105682;1250;1062262;-80
2023/09/03 01:58:48;;;;;;;17.60;11.00;;;;;;;-128.00;-1.00;-1.00;105492;1251;1004501;-80
2023/09/03 02:01:15;;;;;;;18.20;11.90;;;;;;;-128.00;-1.00;-1.00;105479;1251;1004087;-80
2023/09/03 02:03:41;;;;;;;21.30;12.30;;;;;;;-128.00;-1.00;-1.00;105480;1251;1004346;-80
2023/09/03 02:06:08;;;;;;;24.00;11.70;;;;;;;-128.00;-1.00;-1.00;105493;1251;1005501;-80
2023/09/03 02:08:34;;;;;;;19.40;11.60;;;;;;;-128.00;-1.00;-1.00;105617;1250;1004237;-80
2023/09/03 02:11:01;;;;;;;21.40;12.20;;;;;;;-128.00;-1.00;-1.00;105595;1251;1004482;-79
2023/09/03 02:13:27;;;;;;;19.60;11.20;;;;;;;-128.00;-1.00;-1.00;105510;1251;1004731;-80
2023/09/03 02:15:54;;;;;;;20.70;10.80;;;;;;;-128.00;-1.00;-1.00;105531;1251;1004078;-81
2023/09/03 02:18:20;;;;;;;18.60;10.50;;;;;;;-128.00;-1.00;-1.00;105692;1249;1004495;-80
2023/09/03 02:20:46;;;;;;;15.40;10.30;;;;;;;-128.00;-1.00;-1.00;105748;1251;1004523;-80
2023/09/03 02:23:13;;;;;;;17.10;9.90;;;;;;;-128.00;-1.00;-1.00;105702;1250;1004329;-80
2023/09/03 02:25:40;;;;;;;23.80;11.60;;;;;;;-128.00;-1.00;-1.00;105744;1249;1003619;-80
2023/09/03 02:28:09;;;;;;;21.30;11.00;;;;;;;-128.00;-1.00;-1.00;105714;1250;1003894;-80
2023/09/03 02:30:36;;;;;;;17.80;11.60;;;;;;;-128.00;-1.00;-1.00;105719;1250;1046256;-80
2023/09/03 02:33:02;;;;;;;18.10;10.30;;;;;;;-128.00;-1.00;-1.00;105732;1250;1005107;-80
2023/09/03 02:35:29;;;;;;;18.50;11.40;;;;;;;-128.00;-1.00;-1.00;105744;1250;1004965;-80
2023/09/03 02:37:55;;;;;;;17.20;10.90;;;;;;;-128.00;-1.00;-1.00;105844;1251;1005283;-80
2023/09/03 02:40:21;;;;;;;14.50;9.90;;;;;;;-128.00;-1.00;-1.00;105650;1251;1005267;-79
2023/09/03 02:42:48;;;;;;;17.00;10.70;;;;;;;-128.00;-1.00;-1.00;105610;1251;1004673;-80
2023/09/03 02:45:14;;;;;;;23.20;12.20;;;;;;;-128.00;-1.00;-1.00;105599;1250;1004787;-80
2023/09/03 02:47:41;;;;;;;18.30;12.10;;;;;;;-128.00;-1.00;-1.00;105602;1250;1004143;-80
2023/09/03 02:50:07;;;;;;;22.10;12.90;;;;;;;-128.00;-1.00;-1.00;105509;1251;1004559;-80
2023/09/03 02:52:34;;;;;;;16.80;12.80;;;;;;;-128.00;-1.00;-1.00;105638;1250;1004612;-79
2023/09/03 02:55:00;;;;;;;17.60;11.20;;;;;;;-128.00;-1.00;-1.00;105638;1250;1004590;-80
2023/09/03 02:57:27;;;;;;;22.20;11.70;;;;;;;-128.00;-1.00;-1.00;105631;1251;1004724;-80
2023/09/03 02:59:53;;;;;;;16.30;10.50;;;;;;;-128.00;-1.00;-1.00;105618;1250;1004349;-80
2023/09/03 03:02:20;;;;;;;17.30;10.80;;;;;;;-128.00;-1.00;-1.00;105581;1250;1005022;-80
2023/09/03 03:04:47;;;;;;;19.50;10.60;;;;;;;-128.00;-1.00;-1.00;105596;1251;1003873;-80
2023/09/03 03:07:13;;;;;;;17.00;11.20;;;;;;;-128.00;-1.00;-1.00;105594;1251;1004713;-80
2023/09/03 03:09:40;;;;;;;15.80;11.00;;;;;;;-128.00;-1.00;-1.00;105596;1251;1004238;-80
2023/09/03 03:12:06;;;;;;;12.50;9.30;;;;;;;-128.00;-1.00;-1.00;105614;1250;1004273;-80
2023/09/03 03:14:32;;;;;;;12.30;8.50;;;;;;;-128.00;-1.00;-1.00;105599;1250;1003868;-80
2023/09/03 03:16:59;;;;;;;11.90;8.50;;;;;;;-128.00;-1.00;-1.00;105625;1250;1006088;-80
2023/09/03 03:19:26;;;;;;;9.70;8.10;;;;;;;-128.00;-1.00;-1.00;105806;1250;1005174;-80
2023/09/03 03:21:52;;;;;;;13.70;8.40;;;;;;;-128.00;-1.00;-1.00;105777;1250;1004764;-80
2023/09/03 03:24:19;;;;;;;11.50;8.10;;;;;;;-128.00;-1.00;-1.00;105724;1250;1003682;-80
2023/09/03 03:26:46;;;;;;;13.20;8.10;;;;;;;-128.00;-1.00;-1.00;105685;1251;1004237;-80
2023/09/03 03:29:12;;;;;;;9.40;7.00;;;;;;;-128.00;-1.00;-1.00;105762;1250;1003931;-80
2023/09/03 03:31:41;;;;;;;12.00;8.80;;;;;;;-128.00;-1.00;-1.00;105857;1251;1004293;-80
2023/09/03 03:34:08;;;;;;;13.80;8.00;;;;;;;-128.00;-1.00;-1.00;105880;1250;1061755;-80
2023/09/03 03:36:35;;;;;;;12.60;8.90;;;;;;;-128.00;-1.00;-1.00;105724;1252;1003728;-80
2023/09/03 03:39:01;;;;;;;14.40;10.10;;;;;;;-128.00;-1.00;-1.00;105468;1252;1004445;-80
2023/09/03 03:41:28;;;;;;;14.20;9.10;;;;;;;-128.00;-1.00;-1.00;105626;1250;1004533;-80
2023/09/03 03:43:54;;;;;;;15.10;10.50;;;;;;;-128.00;-1.00;-1.00;105609;1250;1003979;-80
2023/09/03 03:46:21;;;;;;;13.10;9.80;;;;;;;-128.00;-1.00;-1.00;105598;1250;1003477;-80
2023/09/03 03:48:48;;;;;;;11.80;9.30;;;;;;;-128.00;-1.00;-1.00;105605;1251;1004465;-80
2023/09/03 03:51:14;;;;;;;17.00;9.70;;;;;;;-128.00;-1.00;-1.00;105393;1251;1003525;-80
2023/09/03 03:53:41;;;;;;;14.50;9.70;;;;;;;-128.00;-1.00;-1.00;105630;1250;1004569;-80
2023/09/03 03:56:09;;;;;;;13.90;9.40;;;;;;;-128.00;-1.00;-1.00;105656;1251;1004788;-80
2023/09/03 03:58:37;;;;;;;13.60;9.60;;;;;;;-128.00;-1.00;-1.00;105640;1250;1004215;-80
2023/09/03 04:01:13;;;;;;;12.70;9.50;;;;;;;-128.00;-1.00;-1.00;105608;1250;1004548;-80
2023/09/03 04:03:40;;;;;;;12.70;9.70;;;;;;;-128.00;-1.00;-1.00;105631;1250;1059453;-79
2023/09/03 04:06:06;;;;;;;12.10;9.90;;;;;;;-128.00;-1.00;-1.00;105637;1250;1005256;-80
2023/09/03 04:08:34;;;;;;;11.60;9.50;;;;;;;-128.00;-1.00;-1.00;105614;1250;1004523;-80
2023/09/03 04:11:05;;;;;;;11.40;7.50;;;;;;;-128.00;-1.00;-1.00;105587;1251;1003726;-79
2023/09/03 04:13:31;;;;;;;9.10;7.30;;;;;;;-128.00;-1.00;-1.00;105563;1250;1057231;-79
2023/09/03 04:15:58;;;;;;;12.20;7.10;;;;;;;-128.00;-1.00;-1.00;105581;1251;1004242;-80
2023/09/03 04:18:25;;;;;;;13.10;7.20;;;;;;;-128.00;-1.00;-1.00;105715;1250;1003937;-79
2023/09/03 04:20:53;;;;;;;9.40;7.70;;;;;;;-128.00;-1.00;-1.00;105723;1249;1004702;-80
2023/09/03 04:23:19;;;;;;;9.80;7.00;;;;;;;-128.00;-1.00;-1.00;105602;1250;1003654;-80
2023/09/03 04:25:46;;;;;;;10.20;7.50;;;;;;;-128.00;-1.00;-1.00;105754;1250;1003612;-80
2023/09/03 04:28:12;;;;;;;11.90;8.10;;;;;;;-128.00;-1.00;-1.00;105724;1250;1004261;-80
2023/09/03 04:30:39;;;;;;;12.70;8.40;;;;;;;-128.00;-1.00;-1.00;105707;1250;1004083;-80
2023/09/03 04:33:07;;;;;;;14.80;8.10;;;;;;;-128.00;-1.00;-1.00;105908;1250;1004127;-80
2023/09/03 04:35:34;;;;;;;11.20;7.90;;;;;;;-128.00;-1.00;-1.00;105808;1251;1004413;-80
2023/09/03 04:38:00;;;;;;;9.70;7.70;;;;;;;-128.00;-1.00;-1.00;105951;1251;1003921;-80
2023/09/03 04:40:27;;;;;;;9.70;7.80;;;;;;;-128.00;-1.00;-1.00;105672;1251;1004600;-80
2023/09/03 04:42:53;;;;;;;11.10;8.90;;;;;;;-128.00;-1.00;-1.00;105586;1250;1004729;-80
2023/09/03 04:45:20;;;;;;;9.70;8.70;;;;;;;-128.00;-1.00;-1.00;105582;1251;1004904;-80
2023/09/03 04:47:46;;;;;;;12.30;11.00;;;;;;;-128.00;-1.00;-1.00;105613;1250;1004139;-80
2023/09/03 04:50:13;;;;;;;11.60;9.50;;;;;;;-128.00;-1.00;-1.00;105585;1250;1003777;-80
2023/09/03 04:52:42;;;;;;;8.00;6.50;;;;;;;-128.00;-1.00;-1.00;105581;1251;1004359;-80
2023/09/03 04:55:08;;;;;;;8.80;6.50;;;;;;;-128.00;-1.00;-1.00;105605;1251;1046216;-80
2023/09/03 04:57:35;;;;;;;7.80;6.80;;;;;;;-128.00;-1.00;-1.00;105618;1250;1004634;-80
2023/09/03 05:00:01;;;;;;;7.70;6.50;;;;;;;-128.00;-1.00;-1.00;105653;1251;1003758;-80
2023/09/03 05:02:30;;;;;;;7.80;7.00;;;;;;;-128.00;-1.00;-1.00;105623;1251;1003747;-80
2023/09/03 05:04:57;;;;;;;11.10;7.60;;;;;;;-128.00;-1.00;-1.00;105616;1251;1005132;-80
2023/09/03 05:07:24;;;;;;;12.30;8.40;;;;;;;-128.00;-1.00;-1.00;105837;1250;1004570;-80
2023/09/03 05:09:54;;;;;;;10.20;7.30;;;;;;;-128.00;-1.00;-1.00;105499;1253;1003596;-80
2023/09/03 05:12:21;;;;;;;10.40;7.40;;;;;;;-128.00;-1.00;-1.00;105663;1251;1060850;-80
2023/09/03 05:14:47;;;;;;;9.70;7.70;;;;;;;-128.00;-1.00;-1.00;105625;1250;1004349;-80
2023/09/03 05:17:14;;;;;;;7.40;6.50;;;;;;;-128.00;-1.00;-1.00;105616;1250;1004406;-80
2023/09/03 05:19:40;;;;;;;8.40;7.40;;;;;;;-128.00;-1.00;-1.00;105565;1250;1004752;-80
2023/09/03 05:22:07;;;;;;;10.40;6.70;;;;;;;-128.00;-1.00;-1.00;105733;1251;1004772;-80
2023/09/03 05:24:33;;;;;;;9.60;6.70;;;;;;;-128.00;-1.00;-1.00;105612;1250;1003729;-79
2023/09/03 05:27:00;;;;;;;13.30;9.00;;;;;;;-128.00;-1.00;-1.00;105703;1251;1005146;-80
2023/09/03 05:29:26;;;;;;;11.90;9.80;;;;;;;-128.00;-1.00;-1.00;105705;1250;1004109;-80
2023/09/03 05:31:53;;;;;;;11.50;7.20;;;;;;;-128.00;-1.00;-1.00;105710;1249;1005695;-80
2023/09/03 05:34:19;;;;;;;9.50;7.00;;;;;;;-128.00;-1.00;-1.00;105725;1250;1005176;-80
2023/09/03 05:36:46;;;;;;;12.80;7.10;;;;;;;-128.00;-1.00;-1.00;105728;1250;1004772;-80
2023/09/03 05:39:12;;;;;;;12.90;8.10;;;;;;;-128.00;-1.00;-1.00;105700;1250;1005170;-80
2023/09/03 05:41:39;;;;;;;10.30;9.00;;;;;;;-128.00;-1.00;-1.00;105605;1251;1004648;-80
2023/09/03 05:44:12;;;;;;;9.60;7.90;;;;;;;-128.00;-1.00;-1.00;105623;1251;1004251;-80
2023/09/03 05:46:38;;;;;;;9.10;8.00;;;;;;;-128.00;-1.00;-1.00;105597;1250;1047503;-80
2023/09/03 05:49:05;;;;;;;11.00;8.60;;;;;;;-128.00;-1.00;-1.00;105616;1250;1004130;-80
2023/09/03 05:51:31;;;;;;;11.40;7.40;;;;;;;-128.00;-1.00;-1.00;105585;1250;1004498;-80
2023/09/03 05:53:57;;;;;;;12.30;7.60;;;;;;;-128.00;-1.00;-1.00;105565;1251;1004366;-80
2023/09/03 05:56:24;;;;;;;10.60;7.00;;;;;;;-128.00;-1.00;-1.00;105606;1254;1005209;-80
2023/09/03 05:58:50;;;;;;;9.90;8.10;;;;;;;-128.00;-1.00;-1.00;105625;1251;1003965;-80
2023/09/03 06:01:17;;;;;;;9.00;7.20;;;;;;;-128.00;-1.00;-1.00;105633;1251;1005049;-80
2023/09/03 06:03:44;;;;;;;9.30;8.00;;;;;;;-128.00;-1.00;-1.00;105523;1251;1004452;-79
2023/09/03 06:06:11;;;;;;;9.90;8.00;;;;;;;-128.00;-1.00;-1.00;105604;1251;1003908;-80
2023/09/03 06:08:38;;;;;;;11.10;8.70;;;;;;;-128.00;-1.00;-1.00;105611;1251;1003883;-80
2023/09/03 06:11:05;;;;;;;9.30;7.80;;;;;;;-128.00;-1.00;-1.00;105604;1250;1004328;-80
2023/09/03 06:13:32;;;;;;;7.40;6.60;;;;;;;-128.00;-1.00;-1.00;105439;1256;1004180;-80
2023/09/03 06:15:59;;;;;;;11.00;8.10;;;;;;;-128.00;-1.00;-1.00;105629;1251;1003995;-80
2023/09/03 06:18:25;;;;;;;9.00;7.20;;;;;;;-128.00;-1.00;-1.00;105765;1251;1003495;-80
2023/09/03 06:20:52;;;;;;;17.50;14.20;;;;;;;-128.00;-1.00;-1.00;105748;1251;1004494;-80
2023/09/03 06:23:19;;;;;;;20.90;16.80;;;;;;;-128.00;-1.00;-1.00;105806;1250;1003798;-81
2023/09/03 06:25:46;;;;;;;16.90;13.20;;;;;;;-128.00;-1.00;-1.00;105713;1252;1004203;-80
2023/09/03 06:28:12;;;;;;;11.40;9.60;;;;;;;-128.00;-1.00;-1.00;105755;1251;1004198;-80
2023/09/03 06:30:39;;;;;;;14.10;10.30;;;;;;;-128.00;-1.00;-1.00;105731;1250;1004294;-80
2023/09/03 06:33:05;;;;;;;12.30;8.40;;;;;;;-128.00;-1.00;-1.00;105520;1250;1004327;-81
2023/09/03 06:35:32;;;;;;;12.60;8.90;;;;;;;-128.00;-1.00;-1.00;105709;1250;1004666;-80
2023/09/03 06:37:58;;;;;;;12.50;9.50;;;;;;;-128.00;-1.00;-1.00;105737;1251;1004639;-80
2023/09/03 06:40:25;;;;;;;14.40;10.60;;;;;;;-128.00;-1.00;-1.00;105578;1251;1004612;-80
2023/09/03 06:42:52;;;;;;;13.80;10.10;;;;;;;-128.00;-1.00;-1.00;105417;1251;1004174;-80
2023/09/03 06:45:18;;;;;;;13.50;12.10;;;;;;;-128.00;-1.00;-1.00;105586;1251;1004549;-79
2023/09/03 06:47:45;;;;;;;19.50;17.50;;;;;;;-128.00;-1.00;-1.00;105643;1251;1004384;-80
2023/09/03 06:50:12;;;;;;;14.90;13.50;;;;;;;-128.00;-1.00;-1.00;105445;1251;1003993;-80
2023/09/03 06:52:38;;;;;;;10.60;9.30;;;;;;;-128.00;-1.00;-1.00;105611;1251;1003946;-80
2023/09/03 06:55:05;;;;;;;8.30;6.60;;;;;;;-128.00;-1.00;-1.00;105589;1250;1004333;-80
2023/09/03 06:57:32;;;;;;;6.90;6.10;;;;;;;-128.00;-1.00;-1.00;105579;1251;1004267;-80
2023/09/03 06:59:58;;;;;;;8.90;7.00;;;;;;;-128.00;-1.00;-1.00;105616;1250;1004202;-80
2023/09/03 07:02:26;;;;;;;8.50;7.30;;;;;;;-128.00;-1.00;-1.00;105630;1251;1003558;-81
2023/09/03 07:04:53;;;;;;;14.70;9.20;;;;;;;-128.00;-1.00;-1.00;105607;1251;1003726;-81
2023/09/03 07:07:19;;;;;;;7.90;6.60;;;;;;;-128.00;-1.00;-1.00;105480;1251;1003863;-81
2023/09/03 07:09:46;;;;;;;7.40;6.30;;;;;;;-128.00;-1.00;-1.00;105489;1251;1004352;-80
2023/09/03 07:12:12;;;;;;;9.50;7.90;;;;;;;-128.00;-1.00;-1.00;105565;1251;1004655;-81
2023/09/03 07:14:39;;;;;;;11.60;8.10;;;;;;;-128.00;-1.00;-1.00;105623;1251;1004067;-80
2023/09/03 07:17:05;;;;;;;10.30;7.60;;;;;;;-128.00;-1.00;-1.00;105639;1250;1003339;-80
2023/09/03 07:19:32;;;;;;;7.50;6.50;;;;;;;-128.00;-1.00;-1.00;105734;1250;1004017;-80
2023/09/03 07:21:59;;;;;;;9.30;8.00;;;;;;;-128.00;-1.00;-1.00;105764;1250;1005121;-81
2023/09/03 07:24:25;;;;;;;20.60;8.80;;;;;;;-128.00;-1.00;-1.00;105644;1250;1004676;-80
2023/09/03 07:26:52;;;;;;;13.10;7.80;;;;;;;-128.00;-1.00;-1.00;105744;1251;1004202;-80
2023/09/03 07:29:18;;;;;;;10.30;7.30;;;;;;;-128.00;-1.00;-1.00;105798;1250;1003880;-80
2023/09/03 07:31:45;;;;;;;11.60;6.70;;;;;;;-128.00;-1.00;-1.00;105792;1251;1003636;-79
2023/09/03 07:34:11;;;;;;;11.80;8.10;;;;;;;-128.00;-1.00;-1.00;105704;1253;1004287;-80
2023/09/03 07:36:38;;;;;;;10.60;7.80;;;;;;;-128.00;-1.00;-1.00;105744;1250;1004615;-80
2023/09/03 07:39:05;;;;;;;14.20;8.20;;;;;;;-128.00;-1.00;-1.00;105693;1251;1003470;-80
2023/09/03 07:41:32;;;;;;;8.90;6.90;;;;;;;-128.00;-1.00;-1.00;105561;1251;1003928;-79
2023/09/03 07:43:59;;;;;;;8.10;5.50;;;;;;;-128.00;-1.00;-1.00;105602;1251;1004755;-80
2023/09/03 07:46:25;;;;;;;8.20;5.60;;;;;;;-128.00;-1.00;-1.00;105590;1251;1004701;-80
2023/09/03 07:48:52;;;;;;;9.10;6.20;;;;;;;-128.00;-1.00;-1.00;105507;1251;1003784;-79
2023/09/03 07:51:19;;;;;;;9.40;7.20;;;;;;;-128.00;-1.00;-1.00;105619;1251;1004566;-80
2023/09/03 07:53:49;;;;;;;13.50;7.30;;;;;;;-128.00;-1.00;-1.00;105807;1251;1004595;-80
2023/09/03 07:56:16;;;;;;;12.80;8.20;;;;;;;-128.00;-1.00;-1.00;105746;1251;1059114;-80
2023/09/03 07:58:43;;;;;;;11.40;7.70;;;;;;;-128.00;-1.00;-1.00;105570;1251;1004127;-83
2023/09/03 08:01:11;;;;;;;4.70;1.90;;;;;;;-128.00;-1.00;-1.00;105553;1251;1004193;-79
2023/09/03 08:03:38;;;;;;;2.00;1.50;;;;;;;-128.00;-1.00;-1.00;105620;1251;1003411;-79
2023/09/03 08:06:06;;;;;;;2.70;1.80;;;;;;;-128.00;-1.00;-1.00;105799;1251;1004335;-80
2023/09/03 08:08:32;;;;;;;3.10;1.80;;;;;;;-128.00;-1.00;-1.00;105551;1250;1004567;-80
2023/09/03 08:10:59;;;;;;;3.20;2.20;;;;;;;-128.00;-1.00;-1.00;105592;1255;1003413;-80
2023/09/03 08:13:26;;;;;;;6.70;2.50;;;;;;;-128.00;-1.00;-1.00;105546;1251;1003809;-81
2023/09/03 08:15:52;;;;;;;3.60;2.40;;;;;;;-128.00;-1.00;-1.00;105622;1251;1005135;-81
2023/09/03 08:18:20;;;;;;;6.10;3.70;;;;;;;-128.00;-1.00;-1.00;105712;1251;1004627;-80
2023/09/03 08:20:50;;;;;;;5.70;5.00;;;;;;;-128.00;-1.00;-1.00;105781;1250;1004105;-80
2023/09/03 08:23:16;;;;;;;4.10;3.40;;;;;;;-128.00;-1.00;-1.00;105821;1250;1046154;-81
2023/09/03 08:25:43;;;;;;;5.00;3.00;;;;;;;-128.00;-1.00;-1.00;105756;1251;1003780;-80
2023/09/03 08:28:10;;;;;;;7.50;6.60;;;;;;;-128.00;-1.00;-1.00;105766;1250;1004115;-80
2023/09/03 08:30:37;;;;;;;28.30;18.10;;;;;;;-128.00;-1.00;-1.00;105635;1250;1003620;-80
2023/09/03 08:33:04;;;;;;;43.90;28.60;;;;;;;-128.00;-1.00;-1.00;105741;1249;1004707;-81
2023/09/03 08:35:30;;;;;;;48.60;32.10;;;;;;;-128.00;-1.00;-1.00;105596;1251;1004904;-80
2023/09/03 08:37:56;;;;;;;46.00;29.50;;;;;;;-128.00;-1.00;-1.00;105635;1250;1004115;-81
2023/09/03 08:40:24;;;;;;;36.10;23.50;;;;;;;-128.00;-1.00;-1.00;105680;1251;1003709;-81
2023/09/03 08:42:52;;;;;;;25.90;16.00;;;;;;;-128.00;-1.00;-1.00;105635;1251;1003975;-81
2023/09/03 08:45:19;;;;;;;19.30;11.60;;;;;;;-128.00;-1.00;-1.00;105640;1251;1004773;-81
2023/09/03 08:47:46;;;;;;;18.40;12.10;;;;;;;-128.00;-1.00;-1.00;105607;1251;1004629;-80
2023/09/03 08:50:15;;;;;;;19.60;12.90;;;;;;;-128.00;-1.00;-1.00;105454;1251;1004056;-81
2023/09/03 08:52:43;;;;;;;20.10;13.90;;;;;;;-128.00;-1.00;-1.00;105591;1251;1060737;-81
2023/09/03 08:55:11;;;;;;;20.50;16.50;;;;;;;-128.00;-1.00;-1.00;105649;1251;1004357;-81
2023/09/03 08:57:38;;;;;;;26.70;19.50;;;;;;;-128.00;-1.00;-1.00;105596;1251;1058613;-80
2023/09/03 09:00:05;;;;;;;23.10;17.90;;;;;;;-128.00;-1.00;-1.00;105625;1251;1004336;-81
2023/09/03 09:02:32;;;;;;;28.30;20.70;;;;;;;-128.00;-1.00;-1.00;105562;1251;1004329;-80
2023/09/03 09:05:03;;;;;;;31.70;22.10;;;;;;;-128.00;-1.00;-1.00;105493;1250;1004016;-81
2023/09/03 09:07:30;;;;;;;30.90;25.00;;;;;;;-128.00;-1.00;-1.00;105596;1251;1058139;-81
2023/09/03 09:09:58;;;;;;;31.70;23.70;;;;;;;-128.00;-1.00;-1.00;105583;1250;1003804;-81
2023/09/03 09:12:28;;;;;;;31.90;24.60;;;;;;;-128.00;-1.00;-1.00;105750;1251;1003824;-84
2023/09/03 09:15:05;;;;;;;28.40;22.60;;;;;;;-128.00;-1.00;-1.00;105508;1252;1047031;-81
2023/09/03 09:17:38;;;;;;;29.60;23.60;;;;;;;-128.00;-1.00;-1.00;105677;1251;1063112;-81
2023/09/03 09:20:05;;;;;;;29.00;22.80;;;;;;;-128.00;-1.00;-1.00;105728;1251;1059308;-80
2023/09/03 09:22:43;;;;;;;25.90;23.10;;;;;;;-128.00;-1.00;-1.00;105695;1250;1004513;-80
2023/09/03 09:25:15;;;;;;;29.40;20.80;;;;;;;-128.00;-1.00;-1.00;105727;1250;1045844;-81
2023/09/03 09:27:41;;;;;;;22.90;19.40;;;;;;;-128.00;-1.00;-1.00;105551;1250;1047291;-82
2023/09/03 09:30:09;;;;;;;21.60;18.00;;;;;;;-128.00;-1.00;-1.00;105714;1251;1003875;-81
2023/09/03 09:32:35;;;;;;;23.20;18.20;;;;;;;-128.00;-1.00;-1.00;105771;1250;1004494;-81
2023/09/03 09:35:02;;;;;;;24.70;19.50;;;;;;;-128.00;-1.00;-1.00;105697;1250;1004596;-81
2023/09/03 09:37:41;;;;;;;23.10;19.30;;;;;;;-128.00;-1.00;-1.00;105729;1250;1005436;-81
2023/09/03 09:40:08;;;;;;;19.30;17.30;;;;;;;-128.00;-1.00;-1.00;105677;1251;1046092;-81
2023/09/03 09:42:35;;;;;;;19.80;16.40;;;;;;;-128.00;-1.00;-1.00;105627;1251;1004442;-81
2023/09/03 09:45:02;;;;;;;21.10;16.30;;;;;;;-128.00;-1.00;-1.00;105426;1251;1003769;-80
2023/09/03 09:47:29;;;;;;;20.50;17.10;;;;;;;-128.00;-1.00;-1.00;105593;1251;1004402;-81
2023/09/03 09:49:55;;;;;;;20.80;17.00;;;;;;;-128.00;-1.00;-1.00;105591;1251;1004281;-81
2023/09/03 09:52:21;;;;;;;20.50;16.60;;;;;;;-128.00;-1.00;-1.00;105610;1251;1003866;-80
2023/09/03 09:54:48;;;;;;;17.90;15.80;;;;;;;-128.00;-1.00;-1.00;105603;1251;1004507;-80
2023/09/03 09:57:19;;;;;;;19.50;16.20;;;;;;;-128.00;-1.00;-1.00;105537;1251;1004792;-81
2023/09/03 10:00:04;;;;;;;19.10;15.50;;;;;;;-128.00;-1.00;-1.00;105657;1251;1058584;-80
2023/09/03 10:02:32;;;;;;;18.90;15.00;;;;;;;-128.00;-1.00;-1.00;105479;1251;1046317;-80
2023/09/03 10:04:59;;;;;;;16.60;14.80;;;;;;;-128.00;-1.00;-1.00;105626;1251;1004178;-80
2023/09/03 10:07:26;;;;;;;18.10;14.90;;;;;;;-128.00;-1.00;-1.00;105607;1251;1003908;-80
2023/09/03 10:09:53;;;;;;;18.30;14.70;;;;;;;-128.00;-1.00;-1.00;105516;1251;1003840;-80
2023/09/03 10:12:19;;;;;;;20.90;16.50;;;;;;;-128.00;-1.00;-1.00;105620;1251;1004529;-80
2023/09/03 10:14:46;;;;;;;17.40;14.30;;;;;;;-128.00;-1.00;-1.00;105442;1254;1004325;-81
2023/09/03 10:17:12;;;;;;;19.10;14.40;;;;;;;-128.00;-1.00;-1.00;105619;1250;1004497;-81
2023/09/03 10:19:49;;;;;;;18.30;13.90;;;;;;;-128.00;-1.00;-1.00;105617;1256;1004921;-80
2023/09/03 10:22:16;;;;;;;16.10;13.90;;;;;;;-128.00;-1.00;-1.00;105757;1251;1058429;-81
2023/09/03 10:24:43;;;;;;;16.90;13.40;;;;;;;-128.00;-1.00;-1.00;105649;1251;1005492;-81
2023/09/03 10:27:12;;;;;;;18.00;12.80;;;;;;;-128.00;-1.00;-1.00;105694;1251;1004367;-81
2023/09/03 10:29:38;;;;;;;;;;;;;;;-128.00;-1.00;-1.00;105557;1250;1047272;-80
2023/09/03 10:32:05;;;;;;;14.90;12.50;;;;;;;-128.00;-1.00;-1.00;105710;1254;1004425;-81
2023/09/03 10:34:34;;;;;;;14.70;11.80;;;;;;;-128.00;-1.00;-1.00;105626;1250;1004485;-79
2023/09/03 10:37:11;;;;;;;12.40;10.90;;;;;;;-128.00;-1.00;-1.00;105617;1250;1058850;-80
2023/09/03 10:39:40;;;;;;;15.30;11.60;;;;;;;-128.00;-1.00;-1.00;105697;1251;1046382;-81
2023/09/03 10:42:16;;;;;;;11.40;9.80;;;;;;;-128.00;-1.00;-1.00;105593;1250;1003367;-82
2023/09/03 10:44:43;;;;;;;14.10;11.00;;;;;;;-128.00;-1.00;-1.00;105632;1251;1060312;-82
2023/09/03 10:47:17;;;;;;;10.40;9.10;;;;;;;-128.00;-1.00;-1.00;105618;1251;1004395;-81
2023/09/03 10:49:44;;;;;;;9.80;8.80;;;;;;;-128.00;-1.00;-1.00;105621;1251;1060095;-81
2023/09/03 10:52:32;;;;;;;12.90;9.10;;;;;;;-128.00;-1.00;-1.00;105636;1251;1003749;-81
2023/09/03 10:55:21;;;;;;;9.30;8.30;;;;;;;-128.00;-1.00;-1.00;105606;1251;1046953;-80
2023/09/03 10:58:16;;;;;;;12.40;10.10;;;;;;;-128.00;-1.00;-1.00;105651;1251;1061628;-80
2023/09/03 11:01:18;;;;;;;10.10;9.10;;;;;;;-128.00;-1.00;-1.00;105603;1251;1059161;-80
2023/09/03 11:03:46;;;;;;;13.70;9.40;;;;;;;-128.00;-1.00;-1.00;105494;1251;1058232;-80
2023/09/03 11:06:17;;;;;;;10.00;8.80;;;;;;;-128.00;-1.00;-1.00;105521;1251;1005327;-82
2023/09/03 11:08:45;;;;;;;11.60;9.20;;;;;;;-128.00;-1.00;-1.00;105606;1251;1046901;-81
2023/09/03 11:11:18;;;;;;;11.80;9.20;;;;;;;-128.00;-1.00;-1.00;105525;1251;1004506;-81